Terminal Aerodrome Forecast
Issued by NWS

Home | Current Version | Previous Version | Text Only | Print | Product List | Glossary On
Versions: 1 2 3 4 5 6 7 8 9 10 11 12 13
000
FTUS45 KREV 311100
TAFTVL
TAF
KTVL 311130Z 3112/0112 20010G17KT P6SM SCT120 BKN180
     FM311500 19013G24KT P6SM SCT060 BKN120
     FM312300 20010G18KT P6SM -RA SCT020 BKN040 OVC060
     FM010300 20008KT 4SM -RASN SCT010 OVC030
     FM010700 19005KT 2SM -SN OVC008=

USA.gov is the U.S. government's official web portal to all federal, state and local government web resources and services.